sensor_id;sensor_type;location;lat;lon;timestamp;temperature;humidity
20141;DHT22;10231;47.702;9.826;2023-03-04T00:01:32;1.70;99.90
20141;DHT22;10231;47.702;9.826;2023-03-04T00:03:58;1.70;99.90
20141;DHT22;10231;47.702;9.826;2023-03-04T00:06:24;1.60;99.90
20141;DHT22;10231;47.702;9.826;2023-03-04T00:08:49;1.70;99.90
20141;DHT22;10231;47.702;9.826;2023-03-04T00:11:15;1.60;99.90
20141;DHT22;10231;47.702;9.826;2023-03-04T00:13:41;1.60;99.90
20141;DHT22;10231;47.702;9.826;2023-03-04T00:16:06;1.60;99.90
20141;DHT22;10231;47.702;9.826;2023-03-04T00:18:32;1.60;99.90
20141;DHT22;10231;47.702;9.826;2023-03-04T00:20:58;1.70;99.90
20141;DHT22;10231;47.702;9.826;2023-03-04T00:23:23;1.70;99.90
20141;DHT22;10231;47.702;9.826;2023-03-04T00:25:49;1.60;99.90
20141;DHT22;10231;47.702;9.826;2023-03-04T00:28:15;1.60;99.90
20141;DHT22;10231;47.702;9.826;2023-03-04T00:30:40;1.60;99.90
20141;DHT22;10231;47.702;9.826;2023-03-04T00:33:06;1.70;99.90
20141;DHT22;10231;47.702;9.826;2023-03-04T00:35:32;1.60;99.90
20141;DHT22;10231;47.702;9.826;2023-03-04T00:37:57;1.50;99.90
20141;DHT22;10231;47.702;9.826;2023-03-04T00:40:23;1.40;99.90
20141;DHT22;10231;47.702;9.826;2023-03-04T00:42:49;1.40;99.90
20141;DHT22;10231;47.702;9.826;2023-03-04T00:45:14;1.50;99.90
20141;DHT22;10231;47.702;9.826;2023-03-04T00:47:40;1.50;99.90
20141;DHT22;10231;47.702;9.826;2023-03-04T00:50:06;1.50;99.90
20141;DHT22;10231;47.702;9.826;2023-03-04T00:52:32;1.50;99.90
20141;DHT22;10231;47.702;9.826;2023-03-04T00:54:57;1.40;99.90
20141;DHT22;10231;47.702;9.826;2023-03-04T00:57:23;1.50;99.90
20141;DHT22;10231;47.702;9.826;2023-03-04T00:59:48;1.50;99.90
20141;DHT22;10231;47.702;9.826;2023-03-04T01:02:14;1.50;99.90
20141;DHT22;10231;47.702;9.826;2023-03-04T01:04:39;1.50;99.90
20141;DHT22;10231;47.702;9.826;2023-03-04T01:07:06;1.40;99.90
20141;DHT22;10231;47.702;9.826;2023-03-04T01:09:32;1.30;99.90
20141;DHT22;10231;47.702;9.826;2023-03-04T01:11:57;1.40;99.90
20141;DHT22;10231;47.702;9.826;2023-03-04T01:14:23;1.40;99.90
20141;DHT22;10231;47.702;9.826;2023-03-04T01:16:49;0.90;99.90
20141;DHT22;10231;47.702;9.826;2023-03-04T01:19:15;1.40;99.90
20141;DHT22;10231;47.702;9.826;2023-03-04T01:21:41;1.50;99.90
20141;DHT22;10231;47.702;9.826;2023-03-04T01:24:07;1.40;99.90
20141;DHT22;10231;47.702;9.826;2023-03-04T01:26:33;1.40;99.90
20141;DHT22;10231;47.702;9.826;2023-03-04T01:28:59;1.50;99.90
20141;DHT22;10231;47.702;9.826;2023-03-04T01:31:25;1.50;99.90
20141;DHT22;10231;47.702;9.826;2023-03-04T01:33:51;1.40;99.90
20141;DHT22;10231;47.702;9.826;2023-03-04T01:36:16;1.40;99.90
20141;DHT22;10231;47.702;9.826;2023-03-04T01:38:42;1.40;99.90
20141;DHT22;10231;47.702;9.826;2023-03-04T01:41:08;1.30;99.90
20141;DHT22;10231;47.702;9.826;2023-03-04T01:43:35;1.30;99.90
20141;DHT22;10231;47.702;9.826;2023-03-04T01:46:01;1.40;99.90
20141;DHT22;10231;47.702;9.826;2023-03-04T01:48:33;1.40;99.90
20141;DHT22;10231;47.702;9.826;2023-03-04T01:51:02;1.30;99.90
20141;DHT22;10231;47.702;9.826;2023-03-04T01:53:28;1.40;99.90
20141;DHT22;10231;47.702;9.826;2023-03-04T01:56:33;1.40;99.90
20141;DHT22;10231;47.702;9.826;2023-03-04T01:59:17;1.30;99.90
20141;DHT22;10231;47.702;9.826;2023-03-04T02:01:48;1.30;99.90
20141;DHT22;10231;47.702;9.826;2023-03-04T02:04:20;1.30;99.90
20141;DHT22;10231;47.702;9.826;2023-03-04T02:06:47;1.20;99.90
20141;DHT22;10231;47.702;9.826;2023-03-04T02:09:14;1.10;99.90
20141;DHT22;10231;47.702;9.826;2023-03-04T02:11:40;1.10;99.90
20141;DHT22;10231;47.702;9.826;2023-03-04T02:14:07;0.90;99.90
20141;DHT22;10231;47.702;9.826;2023-03-04T02:16:33;0.80;99.90
20141;DHT22;10231;47.702;9.826;2023-03-04T02:18:59;0.80;99.90
20141;DHT22;10231;47.702;9.826;2023-03-04T02:21:28;0.70;99.90
20141;DHT22;10231;47.702;9.826;2023-03-04T02:26:33;0.80;99.90
20141;DHT22;10231;47.702;9.826;2023-03-04T02:29:02;0.80;99.90
20141;DHT22;10231;47.702;9.826;2023-03-04T02:31:37;0.80;99.90
20141;DHT22;10231;47.702;9.826;2023-03-04T02:34:50;0.60;99.90
20141;DHT22;10231;47.702;9.826;2023-03-04T02:37:09;0.60;99.90
20141;DHT22;10231;47.702;9.826;2023-03-04T02:39:39;0.50;99.90
20141;DHT22;10231;47.702;9.826;2023-03-04T02:42:05;0.60;99.90
20141;DHT22;10231;47.702;9.826;2023-03-04T02:44:35;0.50;99.90
20141;DHT22;10231;47.702;9.826;2023-03-04T02:47:02;0.60;99.90
20141;DHT22;10231;47.702;9.826;2023-03-04T02:49:30;0.60;99.90
20141;DHT22;10231;47.702;9.826;2023-03-04T02:54:29;0.40;99.90
20141;DHT22;10231;47.702;9.826;2023-03-04T02:56:58;0.40;99.90
20141;DHT22;10231;47.702;9.826;2023-03-04T02:59:24;0.50;99.90
20141;DHT22;10231;47.702;9.826;2023-03-04T03:01:50;0.60;99.90
20141;DHT22;10231;47.702;9.826;2023-03-04T03:04:16;0.70;99.90
20141;DHT22;10231;47.702;9.826;2023-03-04T03:06:42;0.60;99.90
20141;DHT22;10231;47.702;9.826;2023-03-04T03:09:08;0.60;99.90
20141;DHT22;10231;47.702;9.826;2023-03-04T03:11:33;0.60;99.90
20141;DHT22;10231;47.702;9.826;2023-03-04T03:14:00;0.60;99.90
20141;DHT22;10231;47.702;9.826;2023-03-04T03:16:25;0.60;99.90
20141;DHT22;10231;47.702;9.826;2023-03-04T03:18:51;0.60;99.90
20141;DHT22;10231;47.702;9.826;2023-03-04T03:21:17;0.60;99.90
20141;DHT22;10231;47.702;9.826;2023-03-04T03:23:42;0.70;99.90
20141;DHT22;10231;47.702;9.826;2023-03-04T03:26:08;0.60;99.90
20141;DHT22;10231;47.702;9.826;2023-03-04T03:28:33;0.40;99.90
20141;DHT22;10231;47.702;9.826;2023-03-04T03:30:59;0.40;99.90
20141;DHT22;10231;47.702;9.826;2023-03-04T03:33:25;0.40;99.90
20141;DHT22;10231;47.702;9.826;2023-03-04T03:35:50;0.40;99.90
20141;DHT22;10231;47.702;9.826;2023-03-04T03:38:16;0.40;99.90
20141;DHT22;10231;47.702;9.826;2023-03-04T03:40:41;0.40;99.90
20141;DHT22;10231;47.702;9.826;2023-03-04T03:43:07;0.30;99.90
20141;DHT22;10231;47.702;9.826;2023-03-04T03:45:33;0.30;99.90
20141;DHT22;10231;47.702;9.826;2023-03-04T03:47:58;0.40;99.90
20141;DHT22;10231;47.702;9.826;2023-03-04T03:50:24;0.50;99.90
20141;DHT22;10231;47.702;9.826;2023-03-04T03:52:50;0.40;99.90
20141;DHT22;10231;47.702;9.826;2023-03-04T03:55:15;0.40;99.90
20141;DHT22;10231;47.702;9.826;2023-03-04T03:57:41;0.20;99.90
20141;DHT22;10231;47.702;9.826;2023-03-04T04:00:08;0.20;99.90
20141;DHT22;10231;47.702;9.826;2023-03-04T04:02:34;0.20;99.90
20141;DHT22;10231;47.702;9.826;2023-03-04T04:05:00;0.10;99.90
20141;DHT22;10231;47.702;9.826;2023-03-04T04:07:25;0.00;99.90
20141;DHT22;10231;47.702;9.826;2023-03-04T04:09:51;0.10;99.90
20141;DHT22;10231;47.702;9.826;2023-03-04T04:12:18;0.20;99.90
20141;DHT22;10231;47.702;9.826;2023-03-04T04:14:44;0.20;99.90
20141;DHT22;10231;47.702;9.826;2023-03-04T04:17:10;0.10;99.90
20141;DHT22;10231;47.702;9.826;2023-03-04T04:19:36;0.20;99.90
20141;DHT22;10231;47.702;9.826;2023-03-04T04:22:02;0.00;99.90
20141;DHT22;10231;47.702;9.826;2023-03-04T04:24:28;0.00;99.90
20141;DHT22;10231;47.702;9.826;2023-03-04T04:26:54;0.20;99.90
20141;DHT22;10231;47.702;9.826;2023-03-04T04:29:20;0.30;99.90
20141;DHT22;10231;47.702;9.826;2023-03-04T04:31:47;0.20;99.90
20141;DHT22;10231;47.702;9.826;2023-03-04T04:34:13;0.10;99.90
20141;DHT22;10231;47.702;9.826;2023-03-04T04:36:39;0.00;99.90
20141;DHT22;10231;47.702;9.826;2023-03-04T04:39:04;0.00;99.90
20141;DHT22;10231;47.702;9.826;2023-03-04T04:41:35;0.00;99.90
20141;DHT22;10231;47.702;9.826;2023-03-04T04:44:01;-0.10;99.90
20141;DHT22;10231;47.702;9.826;2023-03-04T04:46:27;-0.20;99.90
20141;DHT22;10231;47.702;9.826;2023-03-04T04:48:52;-0.10;99.90
20141;DHT22;10231;47.702;9.826;2023-03-04T04:51:18;-0.30;99.90
20141;DHT22;10231;47.702;9.826;2023-03-04T04:53:44;-0.40;99.90
20141;DHT22;10231;47.702;9.826;2023-03-04T04:56:15;-0.20;99.90
20141;DHT22;10231;47.702;9.826;2023-03-04T04:58:42;-0.20;99.90
20141;DHT22;10231;47.702;9.826;2023-03-04T05:01:08;-0.20;99.90
20141;DHT22;10231;47.702;9.826;2023-03-04T05:03:35;-0.30;99.90
20141;DHT22;10231;47.702;9.826;2023-03-04T05:06:02;-0.30;99.90
20141;DHT22;10231;47.702;9.826;2023-03-04T05:08:28;-0.20;99.90
20141;DHT22;10231;47.702;9.826;2023-03-04T05:10:57;-0.20;99.90
20141;DHT22;10231;47.702;9.826;2023-03-04T05:13:23;-0.10;99.90
20141;DHT22;10231;47.702;9.826;2023-03-04T05:15:51;-0.10;99.90
20141;DHT22;10231;47.702;9.826;2023-03-04T05:18:18;-0.20;99.90
20141;DHT22;10231;47.702;9.826;2023-03-04T05:20:44;-0.30;99.90
20141;DHT22;10231;47.702;9.826;2023-03-04T05:23:09;-0.30;99.90
20141;DHT22;10231;47.702;9.826;2023-03-04T05:25:35;-0.40;99.90
20141;DHT22;10231;47.702;9.826;2023-03-04T05:28:00;-0.40;99.90
20141;DHT22;10231;47.702;9.826;2023-03-04T05:30:27;-0.50;99.90
20141;DHT22;10231;47.702;9.826;2023-03-04T05:32:52;-0.50;99.90
20141;DHT22;10231;47.702;9.826;2023-03-04T05:35:21;-0.40;99.90
20141;DHT22;10231;47.702;9.826;2023-03-04T05:37:46;-0.40;99.90
20141;DHT22;10231;47.702;9.826;2023-03-04T05:40:12;-0.30;99.90
20141;DHT22;10231;47.702;9.826;2023-03-04T05:42:38;-0.20;99.90
20141;DHT22;10231;47.702;9.826;2023-03-04T05:45:04;-0.20;99.90
20141;DHT22;10231;47.702;9.826;2023-03-04T05:47:30;-0.20;99.90
20141;DHT22;10231;47.702;9.826;2023-03-04T05:49:55;-0.30;99.90
20141;DHT22;10231;47.702;9.826;2023-03-04T05:52:22;-0.20;99.90
20141;DHT22;10231;47.702;9.826;2023-03-04T05:54:48;-0.20;99.90
20141;DHT22;10231;47.702;9.826;2023-03-04T05:57:13;-0.30;99.90
20141;DHT22;10231;47.702;9.826;2023-03-04T05:59:39;-0.20;99.90
20141;DHT22;10231;47.702;9.826;2023-03-04T06:02:05;-0.30;99.90
20141;DHT22;10231;47.702;9.826;2023-03-04T06:04:30;-0.30;99.90
20141;DHT22;10231;47.702;9.826;2023-03-04T06:06:56;-0.30;99.90
20141;DHT22;10231;47.702;9.826;2023-03-04T06:09:22;-0.30;99.90
20141;DHT22;10231;47.702;9.826;2023-03-04T06:11:47;-0.40;99.90
20141;DHT22;10231;47.702;9.826;2023-03-04T06:14:13;-0.50;99.90
20141;DHT22;10231;47.702;9.826;2023-03-04T06:16:39;-0.60;99.90
20141;DHT22;10231;47.702;9.826;2023-03-04T06:19:05;-0.50;99.90
20141;DHT22;10231;47.702;9.826;2023-03-04T06:21:30;-0.40;99.90
20141;DHT22;10231;47.702;9.826;2023-03-04T06:23:56;-0.30;99.90
20141;DHT22;10231;47.702;9.826;2023-03-04T06:26:22;-0.30;99.90
20141;DHT22;10231;47.702;9.826;2023-03-04T06:28:47;-0.40;99.90
20141;DHT22;10231;47.702;9.826;2023-03-04T06:31:13;-0.50;99.90
20141;DHT22;10231;47.702;9.826;2023-03-04T06:33:38;-0.50;99.90
20141;DHT22;10231;47.702;9.826;2023-03-04T06:36:04;-0.50;99.90
20141;DHT22;10231;47.702;9.826;2023-03-04T06:38:30;-0.40;99.90
20141;DHT22;10231;47.702;9.826;2023-03-04T06:41:05;-0.40;99.90
20141;DHT22;10231;47.702;9.826;2023-03-04T06:43:31;-0.40;99.90
20141;DHT22;10231;47.702;9.826;2023-03-04T06:45:57;-0.40;99.90
20141;DHT22;10231;47.702;9.826;2023-03-04T06:48:23;-0.30;99.90
20141;DHT22;10231;47.702;9.826;2023-03-04T06:50:49;-0.40;99.90
20141;DHT22;10231;47.702;9.826;2023-03-04T06:53:14;-0.40;99.90
20141;DHT22;10231;47.702;9.826;2023-03-04T06:55:40;-0.40;99.90
20141;DHT22;10231;47.702;9.826;2023-03-04T06:58:06;-0.40;99.90
20141;DHT22;10231;47.702;9.826;2023-03-04T07:00:31;-0.50;99.90
20141;DHT22;10231;47.702;9.826;2023-03-04T07:02:57;-0.40;99.90
20141;DHT22;10231;47.702;9.826;2023-03-04T07:05:23;-0.40;99.90
20141;DHT22;10231;47.702;9.826;2023-03-04T07:07:49;-0.30;99.90
20141;DHT22;10231;47.702;9.826;2023-03-04T07:10:16;-0.30;99.90
20141;DHT22;10231;47.702;9.826;2023-03-04T07:12:41;-0.20;99.90
20141;DHT22;10231;47.702;9.826;2023-03-04T07:15:08;-0.20;99.90
20141;DHT22;10231;47.702;9.826;2023-03-04T07:17:34;-0.10;99.90
20141;DHT22;10231;47.702;9.826;2023-03-04T07:19:59;0.00;99.90
20141;DHT22;10231;47.702;9.826;2023-03-04T07:22:25;0.10;99.90
20141;DHT22;10231;47.702;9.826;2023-03-04T07:24:51;0.20;99.90
20141;DHT22;10231;47.702;9.826;2023-03-04T07:27:16;0.30;99.90
20141;DHT22;10231;47.702;9.826;2023-03-04T07:29:42;0.30;99.90
20141;DHT22;10231;47.702;9.826;2023-03-04T07:32:09;0.30;99.90
20141;DHT22;10231;47.702;9.826;2023-03-04T07:34:34;0.30;99.90
20141;DHT22;10231;47.702;9.826;2023-03-04T07:37:00;0.40;99.90
20141;DHT22;10231;47.702;9.826;2023-03-04T07:39:26;0.40;99.90
20141;DHT22;10231;47.702;9.826;2023-03-04T07:41:51;0.50;99.90
20141;DHT22;10231;47.702;9.826;2023-03-04T07:44:17;0.40;99.90
20141;DHT22;10231;47.702;9.826;2023-03-04T07:46:42;0.40;99.90
20141;DHT22;10231;47.702;9.826;2023-03-04T07:49:10;0.40;99.90
20141;DHT22;10231;47.702;9.826;2023-03-04T07:51:36;0.40;99.90
20141;DHT22;10231;47.702;9.826;2023-03-04T07:54:02;0.50;99.90
20141;DHT22;10231;47.702;9.826;2023-03-04T07:56:30;0.50;99.90
20141;DHT22;10231;47.702;9.826;2023-03-04T07:58:56;0.50;99.90
20141;DHT22;10231;47.702;9.826;2023-03-04T08:01:25;0.60;99.90
20141;DHT22;10231;47.702;9.826;2023-03-04T08:03:51;0.60;99.90
20141;DHT22;10231;47.702;9.826;2023-03-04T08:06:18;0.70;99.90
20141;DHT22;10231;47.702;9.826;2023-03-04T08:08:45;0.80;99.90
20141;DHT22;10231;47.702;9.826;2023-03-04T08:11:14;0.80;99.90
20141;DHT22;10231;47.702;9.826;2023-03-04T08:13:40;0.80;99.90
20141;DHT22;10231;47.702;9.826;2023-03-04T08:16:06;0.80;99.90
20141;DHT22;10231;47.702;9.826;2023-03-04T08:18:32;0.80;99.90
20141;DHT22;10231;47.702;9.826;2023-03-04T08:20:58;0.90;99.90
20141;DHT22;10231;47.702;9.826;2023-03-04T08:23:24;0.90;99.90
20141;DHT22;10231;47.702;9.826;2023-03-04T08:25:50;1.10;99.90
20141;DHT22;10231;47.702;9.826;2023-03-04T08:28:16;1.20;99.90
20141;DHT22;10231;47.702;9.826;2023-03-04T08:30:42;1.20;99.90
20141;DHT22;10231;47.702;9.826;2023-03-04T08:33:08;1.30;99.90
20141;DHT22;10231;47.702;9.826;2023-03-04T08:35:37;1.50;99.90
20141;DHT22;10231;47.702;9.826;2023-03-04T08:38:03;1.50;99.90
20141;DHT22;10231;47.702;9.826;2023-03-04T08:40:29;1.60;99.90
20141;DHT22;10231;47.702;9.826;2023-03-04T08:42:55;1.70;99.90
20141;DHT22;10231;47.702;9.826;2023-03-04T08:45:21;1.70;99.90
20141;DHT22;10231;47.702;9.826;2023-03-04T08:47:46;1.80;99.90
20141;DHT22;10231;47.702;9.826;2023-03-04T08:50:12;1.80;99.90
20141;DHT22;10231;47.702;9.826;2023-03-04T08:52:38;1.90;99.90
20141;DHT22;10231;47.702;9.826;2023-03-04T08:55:03;1.90;99.90
20141;DHT22;10231;47.702;9.826;2023-03-04T08:57:29;1.90;99.90
20141;DHT22;10231;47.702;9.826;2023-03-04T08:59:55;2.00;99.90
20141;DHT22;10231;47.702;9.826;2023-03-04T09:02:20;2.10;99.90
20141;DHT22;10231;47.702;9.826;2023-03-04T09:04:46;2.20;99.90
20141;DHT22;10231;47.702;9.826;2023-03-04T09:07:11;2.30;99.90
20141;DHT22;10231;47.702;9.826;2023-03-04T09:09:38;2.40;99.90
20141;DHT22;10231;47.702;9.826;2023-03-04T09:12:05;2.40;99.90
20141;DHT22;10231;47.702;9.826;2023-03-04T09:14:30;2.40;99.90
20141;DHT22;10231;47.702;9.826;2023-03-04T09:16:57;2.50;99.90
20141;DHT22;10231;47.702;9.826;2023-03-04T09:19:23;2.60;99.90
20141;DHT22;10231;47.702;9.826;2023-03-04T09:21:49;2.60;99.90
20141;DHT22;10231;47.702;9.826;2023-03-04T09:24:14;2.70;99.90
20141;DHT22;10231;47.702;9.826;2023-03-04T09:26:40;2.90;99.90
20141;DHT22;10231;47.702;9.826;2023-03-04T09:29:06;3.00;99.90
20141;DHT22;10231;47.702;9.826;2023-03-04T09:31:32;3.10;99.90
20141;DHT22;10231;47.702;9.826;2023-03-04T09:33:58;3.10;99.90
20141;DHT22;10231;47.702;9.826;2023-03-04T09:36:24;3.10;99.90
20141;DHT22;10231;47.702;9.826;2023-03-04T09:38:50;3.20;99.90
20141;DHT22;10231;47.702;9.826;2023-03-04T09:44:04;3.50;99.90
20141;DHT22;10231;47.702;9.826;2023-03-04T09:46:34;3.60;99.90
20141;DHT22;10231;47.702;9.826;2023-03-04T09:49:02;3.60;99.90
20141;DHT22;10231;47.702;9.826;2023-03-04T09:51:50;3.70;99.90
20141;DHT22;10231;47.702;9.826;2023-03-04T10:00:17;4.10;99.90
20141;DHT22;10231;47.702;9.826;2023-03-04T10:05:56;4.00;99.90
20141;DHT22;10231;47.702;9.826;2023-03-04T10:08:56;4.10;99.90
20141;DHT22;10231;47.702;9.826;2023-03-04T10:11:40;4.20;99.90
20141;DHT22;10231;47.702;9.826;2023-03-04T10:19:52;4.30;99.90
20141;DHT22;10231;47.702;9.826;2023-03-04T10:22:27;4.30;99.90
20141;DHT22;10231;47.702;9.826;2023-03-04T10:24:57;4.40;99.90
20141;DHT22;10231;47.702;9.826;2023-03-04T10:27:23;4.40;99.90
20141;DHT22;10231;47.702;9.826;2023-03-04T10:29:50;4.50;99.90
20141;DHT22;10231;47.702;9.826;2023-03-04T10:32:18;4.60;99.90
20141;DHT22;10231;47.702;9.826;2023-03-04T10:34:44;4.80;99.90
20141;DHT22;10231;47.702;9.826;2023-03-04T10:37:10;4.80;99.90
20141;DHT22;10231;47.702;9.826;2023-03-04T10:39:46;4.90;99.90
20141;DHT22;10231;47.702;9.826;2023-03-04T10:47:16;5.00;99.90
20141;DHT22;10231;47.702;9.826;2023-03-04T10:49:56;5.00;99.90
20141;DHT22;10231;47.702;9.826;2023-03-04T10:52:35;5.00;99.90
20141;DHT22;10231;47.702;9.826;2023-03-04T10:55:14;5.00;99.90
20141;DHT22;10231;47.702;9.826;2023-03-04T10:57:42;5.00;99.90
20141;DHT22;10231;47.702;9.826;2023-03-04T11:00:33;5.10;99.90
20141;DHT22;10231;47.702;9.826;2023-03-04T11:05:46;5.20;99.90
20141;DHT22;10231;47.702;9.826;2023-03-04T11:08:21;5.30;99.90
20141;DHT22;10231;47.702;9.826;2023-03-04T11:10:48;5.20;99.90
20141;DHT22;10231;47.702;9.826;2023-03-04T11:13:25;5.20;99.90
20141;DHT22;10231;47.702;9.826;2023-03-04T11:16:00;5.20;99.90
20141;DHT22;10231;47.702;9.826;2023-03-04T11:19:02;5.30;99.90
20141;DHT22;10231;47.702;9.826;2023-03-04T11:21:33;5.50;99.90
20141;DHT22;10231;47.702;9.826;2023-03-04T11:29:17;5.90;99.90
20141;DHT22;10231;47.702;9.826;2023-03-04T11:31:59;6.00;99.90
20141;DHT22;10231;47.702;9.826;2023-03-04T11:39:46;5.80;99.90
20141;DHT22;10231;47.702;9.826;2023-03-04T11:42:34;5.80;99.90
20141;DHT22;10231;47.702;9.826;2023-03-04T11:45:01;5.80;99.90
20141;DHT22;10231;47.702;9.826;2023-03-04T11:50:40;5.80;99.90
20141;DHT22;10231;47.702;9.826;2023-03-04T11:54:14;5.80;99.90
20141;DHT22;10231;47.702;9.826;2023-03-04T11:56:38;5.80;99.90
20141;DHT22;10231;47.702;9.826;2023-03-04T12:02:12;5.80;99.90
20141;DHT22;10231;47.702;9.826;2023-03-04T12:04:51;5.90;99.90
20141;DHT22;10231;47.702;9.826;2023-03-04T12:10:29;6.10;99.90
20141;DHT22;10231;47.702;9.826;2023-03-04T12:13:29;6.20;99.90
20141;DHT22;10231;47.702;9.826;2023-03-04T12:19:15;6.50;99.90
20141;DHT22;10231;47.702;9.826;2023-03-04T12:22:13;6.50;99.90
20141;DHT22;10231;47.702;9.826;2023-03-04T12:25:09;6.70;99.90
20141;DHT22;10231;47.702;9.826;2023-03-04T12:35:45;7.00;99.90
20141;DHT22;10231;47.702;9.826;2023-03-04T12:38:26;7.00;99.90
20141;DHT22;10231;47.702;9.826;2023-03-04T12:41:24;7.00;99.90
20141;DHT22;10231;47.702;9.826;2023-03-04T12:44:17;7.00;99.90
20141;DHT22;10231;47.702;9.826;2023-03-04T12:52:20;7.30;99.90
20141;DHT22;10231;47.702;9.826;2023-03-04T12:54:54;7.30;99.90
20141;DHT22;10231;47.702;9.826;2023-03-04T12:57:24;7.30;99.90
20141;DHT22;10231;47.702;9.826;2023-03-04T13:03:05;7.50;99.90
20141;DHT22;10231;47.702;9.826;2023-03-04T13:08:24;7.50;99.90
20141;DHT22;10231;47.702;9.826;2023-03-04T13:10:51;7.50;99.90
20141;DHT22;10231;47.702;9.826;2023-03-04T13:13:35;7.60;99.90
20141;DHT22;10231;47.702;9.826;2023-03-04T13:16:04;7.60;99.90
20141;DHT22;10231;47.702;9.826;2023-03-04T13:18:32;7.60;99.90
20141;DHT22;10231;47.702;9.826;2023-03-04T13:21:27;7.70;99.90
20141;DHT22;10231;47.702;9.826;2023-03-04T13:23:54;7.80;99.90
20141;DHT22;10231;47.702;9.826;2023-03-04T13:26:33;7.80;99.90
20141;DHT22;10231;47.702;9.826;2023-03-04T13:31:58;7.80;99.90
20141;DHT22;10231;47.702;9.826;2023-03-04T13:37:32;7.90;99.90
20141;DHT22;10231;47.702;9.826;2023-03-04T13:40:34;7.90;99.90
20141;DHT22;10231;47.702;9.826;2023-03-04T13:43:24;8.20;99.90
20141;DHT22;10231;47.702;9.826;2023-03-04T13:45:50;8.60;99.90
20141;DHT22;10231;47.702;9.826;2023-03-04T13:48:31;8.90;99.90
20141;DHT22;10231;47.702;9.826;2023-03-04T13:50:57;9.10;99.90
20141;DHT22;10231;47.702;9.826;2023-03-04T13:53:38;9.30;99.90
20141;DHT22;10231;47.702;9.826;2023-03-04T13:56:21;9.40;99.90
20141;DHT22;10231;47.702;9.826;2023-03-04T13:58:50;9.70;99.90
20141;DHT22;10231;47.702;9.826;2023-03-04T14:01:28;10.00;99.90
20141;DHT22;10231;47.702;9.826;2023-03-04T14:03:57;10.30;99.90
20141;DHT22;10231;47.702;9.826;2023-03-04T14:06:27;10.60;99.90
20141;DHT22;10231;47.702;9.826;2023-03-04T14:08:54;10.70;99.90
20141;DHT22;10231;47.702;9.826;2023-03-04T14:11:33;10.80;99.90
20141;DHT22;10231;47.702;9.826;2023-03-04T14:14:06;11.00;99.90
20141;DHT22;10231;47.702;9.826;2023-03-04T14:16:38;10.90;99.90
20141;DHT22;10231;47.702;9.826;2023-03-04T14:19:11;10.80;99.90
20141;DHT22;10231;47.702;9.826;2023-03-04T14:21:44;10.80;99.90
20141;DHT22;10231;47.702;9.826;2023-03-04T14:24:16;11.10;99.90
20141;DHT22;10231;47.702;9.826;2023-03-04T14:26:42;11.50;99.90
20141;DHT22;10231;47.702;9.826;2023-03-04T14:29:24;11.50;99.90
20141;DHT22;10231;47.702;9.826;2023-03-04T14:31:51;11.20;99.90
20141;DHT22;10231;47.702;9.826;2023-03-04T14:34:25;11.30;99.90
20141;DHT22;10231;47.702;9.826;2023-03-04T14:36:53;11.40;99.90
20141;DHT22;10231;47.702;9.826;2023-03-04T14:39:19;11.50;99.90
20141;DHT22;10231;47.702;9.826;2023-03-04T14:41:47;11.80;99.90
20141;DHT22;10231;47.702;9.826;2023-03-04T14:44:28;12.00;99.90
20141;DHT22;10231;47.702;9.826;2023-03-04T14:47:05;12.40;99.90
20141;DHT22;10231;47.702;9.826;2023-03-04T14:49:34;12.60;99.90
20141;DHT22;10231;47.702;9.826;2023-03-04T14:52:00;12.80;99.90
20141;DHT22;10231;47.702;9.826;2023-03-04T14:54:40;12.50;99.90
20141;DHT22;10231;47.702;9.826;2023-03-04T14:57:27;12.60;99.90
20141;DHT22;10231;47.702;9.826;2023-03-04T14:59:54;12.70;99.90
20141;DHT22;10231;47.702;9.826;2023-03-04T15:02:29;12.90;
20141;DHT22;10231;47.702;9.826;2023-03-04T15:05:16;13.00;99.90
20141;DHT22;10231;47.702;9.826;2023-03-04T15:08:33;13.10;99.90
20141;DHT22;10231;47.702;9.826;2023-03-04T15:10:38;13.60;99.90
20141;DHT22;10231;47.702;9.826;2023-03-04T15:13:06;14.30;99.40
20141;DHT22;10231;47.702;9.826;2023-03-04T15:15:43;15.00;97.80
20141;DHT22;10231;47.702;9.826;2023-03-04T15:18:20;15.80;95.90
20141;DHT22;10231;47.702;9.826;2023-03-04T15:21:03;16.40;93.30
20141;DHT22;10231;47.702;9.826;2023-03-04T15:23:30;16.50;92.60
20141;DHT22;10231;47.702;9.826;2023-03-04T15:25:59;17.30;91.00
20141;DHT22;10231;47.702;9.826;2023-03-04T15:28:30;17.90;89.40
20141;DHT22;10231;47.702;9.826;2023-03-04T15:30:57;17.60;87.10
20141;DHT22;10231;47.702;9.826;2023-03-04T15:33:23;17.90;85.40
20141;DHT22;10231;47.702;9.826;2023-03-04T15:35:55;17.90;82.90
20141;DHT22;10231;47.702;9.826;2023-03-04T15:38:21;17.50;84.30
20141;DHT22;10231;47.702;9.826;2023-03-04T15:40:47;17.90;81.60
20141;DHT22;10231;47.702;9.826;2023-03-04T15:43:16;17.80;81.00
20141;DHT22;10231;47.702;9.826;2023-03-04T15:45:42;18.10;79.20
20141;DHT22;10231;47.702;9.826;2023-03-04T15:48:10;18.00;79.50
20141;DHT22;10231;47.702;9.826;2023-03-04T15:50:39;18.00;78.70
20141;DHT22;10231;47.702;9.826;2023-03-04T15:53:11;17.00;80.80
20141;DHT22;10231;47.702;9.826;2023-03-04T15:55:38;16.90;82.30
20141;DHT22;10231;47.702;9.826;2023-03-04T15:58:04;17.60;78.90
20141;DHT22;10231;47.702;9.826;2023-03-04T16:00:30;17.50;79.50
20141;DHT22;10231;47.702;9.826;2023-03-04T16:02:57;17.20;80.40
20141;DHT22;10231;47.702;9.826;2023-03-04T16:05:22;17.00;81.00
20141;DHT22;10231;47.702;9.826;2023-03-04T16:07:49;16.30;83.10
20141;DHT22;10231;47.702;9.826;2023-03-04T16:10:25;16.10;83.70
20141;DHT22;10231;47.702;9.826;2023-03-04T16:12:52;15.30;87.30
20141;DHT22;10231;47.702;9.826;2023-03-04T16:15:23;14.80;90.20
20141;DHT22;10231;47.702;9.826;2023-03-04T16:17:49;14.40;90.90
20141;DHT22;10231;47.702;9.826;2023-03-04T16:20:21;14.30;91.50
20141;DHT22;10231;47.702;9.826;2023-03-04T16:22:50;14.10;92.30
20141;DHT22;10231;47.702;9.826;2023-03-04T16:25:19;13.50;93.20
20141;DHT22;10231;47.702;9.826;2023-03-04T16:27:45;13.50;94.20
20141;DHT22;10231;47.702;9.826;2023-03-04T16:30:14;12.40;95.50
20141;DHT22;10231;47.702;9.826;2023-03-04T16:32:40;11.90;96.90
20141;DHT22;10231;47.702;9.826;2023-03-04T16:35:06;11.40;98.30
20141;DHT22;10231;47.702;9.826;2023-03-04T16:37:32;11.00;99.40
20141;DHT22;10231;47.702;9.826;2023-03-04T16:39:58;10.70;99.90
20141;DHT22;10231;47.702;9.826;2023-03-04T16:42:24;10.40;99.90
20141;DHT22;10231;47.702;9.826;2023-03-04T16:44:52;10.10;99.90
20141;DHT22;10231;47.702;9.826;2023-03-04T16:47:18;9.90;99.90
20141;DHT22;10231;47.702;9.826;2023-03-04T16:49:43;9.60;99.90
20141;DHT22;10231;47.702;9.826;2023-03-04T16:52:28;9.40;99.90
20141;DHT22;10231;47.702;9.826;2023-03-04T16:54:55;9.30;99.90
20141;DHT22;10231;47.702;9.826;2023-03-04T16:57:22;9.20;99.90
20141;DHT22;10231;47.702;9.826;2023-03-04T16:59:47;9.00;99.90
20141;DHT22;10231;47.702;9.826;2023-03-04T17:02:18;8.80;99.90
20141;DHT22;10231;47.702;9.826;2023-03-04T17:04:47;8.60;99.90
20141;DHT22;10231;47.702;9.826;2023-03-04T17:07:13;8.50;99.90
20141;DHT22;10231;47.702;9.826;2023-03-04T17:09:39;8.40;99.90
20141;DHT22;10231;47.702;9.826;2023-03-04T17:12:07;8.40;99.90